createdAt,value
2023-03-23T15:58:24.172Z,62.49
2023-03-23T16:00:53.691Z,61.89
2023-03-23T16:03:27.645Z,62.43
2023-03-23T16:05:59.863Z,62.63
2023-03-23T16:08:28.223Z,63.25
2023-03-23T16:10:56.232Z,63.30
2023-03-23T16:13:24.358Z,63.04
2023-03-23T16:15:52.725Z,63.35
2023-03-23T16:18:23.464Z,63.80
2023-03-23T16:20:51.899Z,63.65
2023-03-23T16:23:21.111Z,63.57
2023-03-23T16:25:49.203Z,63.83
2023-03-23T16:28:17.368Z,63.79
2023-03-23T16:30:46.057Z,63.86
2023-03-23T16:33:14.152Z,64.02
2023-03-23T16:35:43.032Z,64.40
2023-03-23T16:38:14.928Z,64.20
2023-03-23T16:40:45.551Z,64.31
2023-03-23T16:43:14.082Z,64.99
2023-03-23T16:45:44.239Z,64.98
2023-03-23T16:48:13.748Z,65.30
2023-03-23T16:50:42.289Z,65.18
2023-03-23T16:53:11.243Z,64.86
2023-03-23T16:55:40.597Z,64.94
2023-03-23T16:58:17.166Z,64.90
2023-03-23T17:00:48.117Z,64.98
2023-03-23T17:03:16.965Z,65.11
2023-03-23T17:05:46.245Z,65.29
2023-03-23T17:08:14.673Z,65.49
2023-03-23T17:10:43.786Z,65.39
2023-03-23T17:13:13.549Z,64.94
2023-03-23T17:15:46.077Z,64.91
2023-03-23T17:18:16.484Z,64.33
2023-03-23T17:20:44.764Z,63.88
2023-03-23T17:23:13.033Z,64.25
2023-03-23T17:25:41.293Z,64.53
2023-03-23T17:28:09.205Z,64.73
2023-03-23T17:30:41.568Z,64.35
2023-03-23T17:33:13.209Z,64.50
2023-03-23T17:35:41.358Z,64.87
2023-03-23T17:38:09.169Z,65.08
2023-03-23T17:40:37.138Z,65.38
2023-03-23T17:43:05.440Z,65.81
2023-03-23T17:45:33.296Z,65.88
2023-03-23T17:48:07.551Z,66.32
2023-03-23T17:50:35.819Z,66.83
2023-03-23T17:53:03.811Z,67.20
2023-03-23T17:55:31.725Z,67.81
2023-03-23T17:57:59.862Z,68.00
2023-03-23T18:00:27.838Z,67.93
2023-03-23T18:02:56.491Z,68.20
2023-03-23T18:05:27.848Z,68.15
2023-03-23T18:07:55.894Z,68.40
2023-03-23T18:10:24.647Z,68.54
2023-03-23T18:12:52.612Z,68.38
2023-03-23T18:15:20.774Z,68.14
2023-03-23T18:17:50.716Z,67.99
2023-03-23T18:20:18.865Z,68.36
2023-03-23T18:22:48.074Z,68.91
2023-03-23T18:25:16.772Z,69.34
2023-03-23T18:27:44.722Z,69.46
2023-03-23T18:30:16.106Z,69.16
2023-03-23T18:32:44.437Z,69.06
2023-03-23T18:35:13.626Z,68.61
2023-03-23T18:37:41.507Z,69.04
2023-03-23T18:40:12.851Z,69.25
2023-03-23T18:42:42.057Z,69.63
2023-03-23T18:45:10.777Z,69.20
2023-03-23T18:47:38.865Z,68.93
2023-03-23T18:50:08.364Z,68.93
2023-03-23T18:52:37.059Z,68.87
2023-03-23T18:55:06.002Z,68.89
2023-03-23T18:57:35.837Z,69.00
2023-03-23T19:00:04.782Z,68.79
2023-03-23T19:02:32.977Z,69.13
2023-03-23T19:05:00.879Z,69.01
2023-03-23T19:07:30.220Z,68.96
2023-03-23T19:09:58.191Z,68.63
2023-03-23T19:12:26.058Z,69.05
2023-03-23T19:14:55.302Z,68.72
2023-03-23T19:17:25.414Z,68.63
2023-03-23T19:19:53.571Z,68.38
2023-03-23T19:22:21.403Z,68.48
2023-03-23T19:24:49.519Z,68.74
2023-03-23T19:27:18.007Z,68.83
2023-03-23T19:29:46.072Z,68.85
2023-03-23T19:32:16.075Z,68.81
2023-03-23T19:34:44.199Z,69.09
2023-03-23T19:37:12.261Z,69.72
2023-03-23T19:39:42.551Z,69.17
2023-03-23T19:42:11.017Z,69.21
2023-03-23T19:44:38.929Z,69.28
2023-03-23T19:47:07.558Z,69.75
2023-03-23T19:49:37.256Z,70.32
2023-03-23T19:52:12.041Z,70.45
2023-03-23T19:54:42.390Z,70.45
2023-03-23T19:57:11.034Z,70.89
2023-03-23T19:59:39.524Z,71.33
2023-03-23T20:02:08.012Z,71.47
2023-03-23T20:04:37.464Z,71.56
2023-03-23T20:07:07.452Z,72.12
2023-03-23T20:09:35.654Z,71.90
2023-03-23T20:14:32.470Z,71.22
2023-03-23T20:17:00.727Z,71.80
2023-03-23T20:19:28.695Z,71.34
2023-03-23T20:21:57.812Z,71.08
2023-03-23T20:24:25.676Z,70.75
2023-03-23T20:26:53.548Z,70.40
2023-03-23T20:29:21.344Z,70.41
2023-03-23T20:31:50.869Z,70.80
2023-03-23T20:34:28.717Z,70.51
2023-03-23T20:36:59.224Z,70.38
2023-03-23T20:39:30.607Z,70.31
2023-03-23T20:42:02.113Z,69.73
2023-03-23T20:44:34.820Z,69.59
2023-03-23T20:47:03.882Z,69.09
2023-03-23T20:49:33.259Z,69.16
2023-03-23T20:52:02.741Z,68.72
2023-03-23T20:54:31.693Z,68.41
2023-03-23T20:57:01.152Z,68.59
2023-03-23T20:59:29.401Z,68.19
2023-03-23T21:01:57.401Z,68.17
2023-03-23T21:04:27.686Z,68.03
2023-03-23T21:06:56.789Z,67.48
2023-03-23T21:09:26.448Z,68.06
2023-03-23T21:11:54.974Z,68.41
2023-03-23T21:14:22.819Z,67.79
2023-03-23T21:16:51.080Z,67.85
2023-03-23T21:19:19.670Z,68.32
2023-03-23T21:21:56.857Z,68.10
2023-03-23T21:24:28.642Z,67.81
2023-03-23T21:26:57.973Z,68.37
2023-03-23T21:29:27.399Z,68.57
2023-03-23T21:34:28.033Z,68.61
2023-03-23T21:36:55.696Z,68.58
2023-03-23T21:39:23.876Z,68.64
2023-03-23T21:41:52.939Z,69.38
2023-03-23T21:44:20.840Z,69.63
2023-03-23T21:46:48.631Z,69.88
2023-03-23T21:49:16.486Z,69.93
2023-03-23T21:51:44.255Z,70.27
2023-03-23T21:54:12.728Z,70.65
2023-03-23T21:56:40.609Z,70.60
2023-03-23T21:59:09.594Z,69.93
2023-03-23T22:01:38.105Z,70.12
2023-03-23T22:04:06.836Z,69.54
2023-03-23T22:06:34.834Z,69.41
2023-03-23T22:09:05.260Z,68.94
2023-03-23T22:11:33.430Z,68.93
2023-03-23T22:14:01.834Z,68.55
2023-03-23T22:16:31.985Z,68.94
2023-03-23T22:19:02.071Z,69.32
2023-03-23T22:21:30.600Z,68.88
2023-03-23T22:24:01.149Z,69.35
2023-03-23T22:26:30.289Z,69.12
2023-03-23T22:28:59.152Z,68.98
2023-03-23T22:31:28.788Z,68.97
2023-03-23T22:33:58.188Z,69.41
2023-03-23T22:36:28.164Z,69.86
2023-03-23T22:38:56.956Z,69.86
2023-03-23T22:41:27.197Z,70.23
2023-03-23T22:43:55.690Z,71.30
2023-03-23T22:46:23.482Z,71.32
2023-03-23T22:48:51.179Z,71.39
2023-03-23T22:51:21.339Z,71.93
2023-03-23T22:53:49.699Z,72.48
2023-03-23T22:56:17.948Z,72.83
2023-03-23T22:58:45.749Z,73.18
2023-03-23T23:01:15.100Z,73.35
2023-03-23T23:03:43.195Z,73.57
2023-03-23T23:06:13.112Z,73.31
2023-03-23T23:08:42.784Z,73.46
2023-03-23T23:11:13.627Z,73.80
2023-03-23T23:13:42.020Z,73.74
2023-03-23T23:16:11.172Z,74.10
2023-03-23T23:18:40.603Z,74.01
2023-03-23T23:21:11.082Z,73.68
2023-03-23T23:23:38.921Z,74.08
2023-03-23T23:26:09.492Z,74.85
2023-03-23T23:28:37.344Z,74.60
2023-03-23T23:31:07.607Z,74.43
2023-03-23T23:33:35.474Z,74.25
2023-03-23T23:36:03.389Z,74.73
2023-03-23T23:38:31.279Z,74.72
2023-03-23T23:40:59.184Z,74.89
2023-03-23T23:43:28.547Z,75.21
2023-03-23T23:45:56.565Z,75.09
2023-03-23T23:48:24.486Z,75.16
2023-03-23T23:50:52.718Z,75.10
2023-03-23T23:53:23.043Z,75.10
2023-03-23T23:55:51.196Z,74.61
2023-03-23T23:58:19.365Z,74.38
